James Clark Ross — ZDLP — position and weather

sailwx.info

Track history (hours):
 
Tides and Currents Weather Stations Pressure Air Temp Water Temp Dewpoint Dewpoint Depression Visibility Wind Speed Wind Dir Waves Ship Positions

Oceanographic research ship James Clark Ross (UK)

Detailed information on ship capabilities available from University of Delaware's Ocean Information Center and ARCUS's ALIAS (Arctic Logistics Information and Support) project.

Last reported at 2015-Apr-11 09:00 UTC. Time now 2015-Apr-21 14:43 UTC.
Position S 59°24' W 043°54'.
Warning: this ship's position is 10 days out of date.

Length 99 m; beam 18.8 m; draft 6.3 m.

Type: Ship. MMSI: 740339000.

AWS

Barometer 1007.9 mb
Air temperature 1.0 ° C
Dewpoint 0.7 ° C

Date/timePositionNaut miles runAvg speedWind from/ knotsBaromVisibWave heightAir tempDewpointWater temp
2015-Apr-11 09:00S 59°24' W 043°54'65 9.3 1007.9 1.0 0.7
2015-Apr-11 02:00S 60°18' W 042°42'7 6.7 1006.5 0.4-0.0
2015-Apr-11 01:00S 60°24' W 042°36'0 0.0 1007.2 0.3-0.1
2015-Apr-10 22:00S 60°24' W 042°36'7 3.3 1007.6 0.4 0.1
2015-Apr-10 20:00S 60°30' W 042°42'0 0.0 1008.0 -0.3
2015-Apr-10 16:00S 60°30' W 042°42'7 3.3 1008.5 -0.8 0.3
2015-Apr-10 14:00S 60°36' W 042°36'12 2.4 1009.0 -0.5-0.1
2015-Apr-10 09:00S 60°36' W 042°12'6 6.0 1008.8 -1.3 0.8
2015-Apr-10 08:00S 60°42' W 042°12'3 1.5 1008.5 -1.0 0.5
2015-Apr-10 06:00S 60°42' W 042°06'0 0.0 1008.2 -0.7 0.2
2015-Apr-10 05:00S 60°42' W 042°06'   1008.3 -0.8 0.2
2015-Apr-04 23:00S 60°42' W 040°24'1211.7 972.5 -4.5 0.9
2015-Apr-04 22:00S 60°42' W 040°48'32 0.6 972.0 -4.6 1.2
2015-Apr-02 20:00S 60°30' W 041°48'11 2.7 956.6 1.2 0.3
2015-Apr-02 16:00S 60°36' W 042°06'98 9.0 959.1 0.8-0.7
2015-Apr-02 05:00S 59°18' W 040°06'20911.0 987.8 0.9 0.1
2015-Apr-01 10:00S 56°30' W 036°12'1211.6 995.4 3.5 2.2
2015-Apr-01 09:00S 56°24' W 035°54'   995.6 3.3 2.1
Track history (hours):
 
Tides and Currents Weather Stations Pressure Air Temp Water Temp Dewpoint Dewpoint Depression Visibility Wind Speed Wind Dir Waves Ship Positions

Oceanographic research ship James Clark Ross (UK)

Detailed information on ship capabilities available from University of Delaware's Ocean Information Center and ARCUS's ALIAS (Arctic Logistics Information and Support) project.

Last reported at 2015-Apr-11 09:00 UTC. Time now 2015-Apr-21 14:43 UTC.
Position S 59°24' W 043°54'.
Warning: this ship's position is 10 days out of date.

Length 99 m; beam 18.8 m; draft 6.3 m.

Type: Ship. MMSI: 740339000.

AWS

Barometer 1007.9 mb
Air temperature 1.0 ° C
Dewpoint 0.7 ° C

Date/timePositionNaut miles runAvg speedWind from/ knotsBaromVisibWave heightAir tempDewpointWater temp
2015-Apr-11 09:00S 59°24' W 043°54'65 9.3 1007.9 1.0 0.7
2015-Apr-11 02:00S 60°18' W 042°42'7 6.7 1006.5 0.4-0.0
2015-Apr-11 01:00S 60°24' W 042°36'0 0.0 1007.2 0.3-0.1
2015-Apr-10 22:00S 60°24' W 042°36'7 3.3 1007.6 0.4 0.1
2015-Apr-10 20:00S 60°30' W 042°42'0 0.0 1008.0 -0.3
2015-Apr-10 16:00S 60°30' W 042°42'7 3.3 1008.5 -0.8 0.3
2015-Apr-10 14:00S 60°36' W 042°36'12 2.4 1009.0 -0.5-0.1
2015-Apr-10 09:00S 60°36' W 042°12'6 6.0 1008.8 -1.3 0.8
2015-Apr-10 08:00S 60°42' W 042°12'3 1.5 1008.5 -1.0 0.5
2015-Apr-10 06:00S 60°42' W 042°06'0 0.0 1008.2 -0.7 0.2
2015-Apr-10 05:00S 60°42' W 042°06'   1008.3 -0.8 0.2
2015-Apr-04 23:00S 60°42' W 040°24'1211.7 972.5 -4.5 0.9
2015-Apr-04 22:00S 60°42' W 040°48'32 0.6 972.0 -4.6 1.2
2015-Apr-02 20:00S 60°30' W 041°48'11 2.7 956.6 1.2 0.3
2015-Apr-02 16:00S 60°36' W 042°06'98 9.0 959.1 0.8-0.7
2015-Apr-02 05:00S 59°18' W 040°06'20911.0 987.8 0.9 0.1
2015-Apr-01 10:00S 56°30' W 036°12'1211.6 995.4 3.5 2.2
2015-Apr-01 09:00S 56°24' W 035°54'   995.6 3.3 2.1

Dump ship's entire track history